createdAt,value
2023-03-22T00:00:19.058Z,101199.63
2023-03-22T00:02:46.479Z,101201.03
2023-03-22T00:05:40.088Z,101189.84
2023-03-22T00:08:08.458Z,101187.63
2023-03-22T00:10:43.812Z,101185.69
2023-03-22T00:13:11.770Z,101183.56
2023-03-22T00:15:39.569Z,101185.69
2023-03-22T00:18:07.137Z,101179.72
2023-03-22T00:20:37.862Z,101166.00
2023-03-22T00:23:06.648Z,101180.25
2023-03-22T00:25:33.857Z,101174.34
2023-03-22T00:28:01.306Z,101171.84
2023-03-22T00:30:28.535Z,101176.16
2023-03-22T00:32:55.882Z,101176.63
2023-03-22T00:35:23.157Z,101173.16
2023-03-22T00:37:51.653Z,101169.41
2023-03-22T00:40:19.019Z,101162.03
2023-03-22T00:42:46.818Z,101156.72
2023-03-22T00:45:14.116Z,101151.94
2023-03-22T00:47:41.725Z,101141.81
2023-03-22T00:50:09.247Z,101144.03
2023-03-22T00:53:02.049Z,101138.88
2023-03-22T00:55:30.026Z,101134.06
2023-03-22T00:58:23.336Z,101128.47
2023-03-22T01:00:51.131Z,101124.56
2023-03-22T01:05:58.495Z,101114.72
2023-03-22T01:08:25.804Z,101113.06
2023-03-22T01:10:54.093Z,101114.13
2023-03-22T01:13:21.524Z,101104.81
2023-03-22T01:15:50.599Z,101106.75
2023-03-22T01:18:18.908Z,101101.41
2023-03-22T01:20:46.683Z,101105.91
2023-03-22T01:23:14.093Z,101101.22
2023-03-22T01:25:41.530Z,101095.75
2023-03-22T01:28:08.886Z,101095.38
2023-03-22T01:30:36.285Z,101082.88
2023-03-22T01:33:03.750Z,101081.44
2023-03-22T01:35:34.621Z,101078.84
2023-03-22T01:38:02.387Z,101080.41
2023-03-22T01:40:29.948Z,101075.13
2023-03-22T01:42:57.414Z,101059.38
2023-03-22T01:45:35.792Z,101057.56
2023-03-22T01:48:10.011Z,101052.22
2023-03-22T01:50:39.656Z,101051.44
2023-03-22T01:53:08.832Z,101042.84
2023-03-22T01:55:37.982Z,101045.94
2023-03-22T01:58:12.348Z,101038.88
2023-03-22T02:00:48.214Z,101042.88
2023-03-22T02:03:57.056Z,101033.19
2023-03-22T02:06:26.101Z,101037.59
2023-03-22T02:09:06.718Z,101024.69
2023-03-22T02:11:38.618Z,101022.72
2023-03-22T02:14:19.062Z,101029.19
2023-03-22T02:17:15.771Z,101022.66
2023-03-22T02:19:54.269Z,101022.97
2023-03-22T02:22:31.251Z,101013.78
2023-03-22T02:25:07.400Z,101007.47
2023-03-22T02:27:34.867Z,101002.56
2023-03-22T02:30:23.207Z,101004.13
2023-03-22T02:32:53.778Z,100985.09
2023-03-22T02:35:40.004Z,101002.41
2023-03-22T02:38:10.653Z,100988.41
2023-03-22T02:40:59.152Z,100985.94
2023-03-22T02:43:34.501Z,100997.91
2023-03-22T02:46:16.028Z,101000.84
2023-03-22T02:48:52.493Z,100984.94
2023-03-22T02:51:30.655Z,100987.53
2023-03-22T02:54:02.284Z,100982.69
2023-03-22T02:56:36.150Z,100994.28
2023-03-22T02:59:04.775Z,100986.53
2023-03-22T03:01:50.817Z,100981.22
2023-03-22T03:04:21.313Z,100980.38
2023-03-22T03:06:50.127Z,100975.56
2023-03-22T03:09:19.407Z,100979.06
2023-03-22T03:11:47.548Z,100967.91
2023-03-22T03:14:22.725Z,100969.63
2023-03-22T03:16:53.960Z,100969.75
2023-03-22T03:19:28.165Z,100951.00
2023-03-22T03:22:01.595Z,100957.44
2023-03-22T03:24:32.406Z,100961.22
2023-03-22T03:27:07.443Z,100953.00
2023-03-22T03:29:43.688Z,100945.94
2023-03-22T03:32:37.865Z,100939.41
2023-03-22T03:35:25.572Z,100942.63
2023-03-22T03:37:59.212Z,100933.47
2023-03-22T03:40:28.609Z,100933.09
2023-03-22T03:42:56.985Z,100930.69
2023-03-22T03:45:25.244Z,100922.16
2023-03-22T03:47:57.166Z,100919.06
2023-03-22T03:50:25.953Z,100920.31
2023-03-22T03:52:54.564Z,100912.91
2023-03-22T03:55:23.231Z,100910.81
2023-03-22T03:57:50.719Z,100907.91
2023-03-22T04:00:18.289Z,100906.88
2023-03-22T04:03:06.419Z,100916.28
2023-03-22T04:05:52.331Z,100906.16
2023-03-22T04:08:19.647Z,100905.06
2023-03-22T04:10:51.858Z,100903.44
2023-03-22T04:13:21.771Z,100896.94
2023-03-22T04:15:53.699Z,100907.66
2023-03-22T04:18:21.410Z,100904.53
2023-03-22T04:20:49.641Z,100891.16
2023-03-22T04:23:17.615Z,100895.47
2023-03-22T04:25:50.299Z,100892.03
2023-03-22T04:28:26.158Z,100898.66
2023-03-22T04:30:54.067Z,100890.69
2023-03-22T04:33:40.613Z,100898.91
2023-03-22T04:36:36.638Z,100892.72
2023-03-22T04:39:15.699Z,100882.41
2023-03-22T04:41:50.242Z,100892.63
2023-03-22T04:44:17.543Z,100887.34
2023-03-22T04:46:49.860Z,100890.81
2023-03-22T04:49:17.752Z,100886.03
2023-03-22T04:51:45.521Z,100882.66
2023-03-22T04:54:41.873Z,100879.28
2023-03-22T04:57:09.541Z,100877.41
2023-03-22T04:59:41.784Z,100876.38
2023-03-22T05:02:10.653Z,100881.91
2023-03-22T05:04:42.370Z,100885.84
2023-03-22T05:07:22.610Z,100874.31
2023-03-22T05:09:54.486Z,100874.69
2023-03-22T05:12:22.256Z,100866.06
2023-03-22T05:14:52.763Z,100872.97
2023-03-22T05:17:24.634Z,100861.84
2023-03-22T05:19:55.216Z,100861.16
2023-03-22T05:22:22.601Z,100862.97
2023-03-22T05:24:51.894Z,100861.44
2023-03-22T05:27:31.758Z,100866.66
2023-03-22T05:30:19.270Z,100858.13
2023-03-22T05:32:56.712Z,100861.69
2023-03-22T05:35:24.410Z,100863.44
2023-03-22T05:37:54.352Z,100855.13
2023-03-22T05:40:23.059Z,100855.91
2023-03-22T05:42:50.603Z,100863.19
2023-03-22T05:45:22.422Z,100844.63
2023-03-22T05:47:59.369Z,100849.22
2023-03-22T05:50:28.401Z,100838.66
2023-03-22T05:52:56.273Z,100840.16
2023-03-22T05:55:46.790Z,100836.19
2023-03-22T05:58:19.199Z,100835.44
2023-03-22T06:00:51.493Z,100838.91
2023-03-22T06:03:39.522Z,100834.91
2023-03-22T06:06:29.929Z,100834.13
2023-03-22T06:09:17.403Z,100830.72
2023-03-22T06:11:50.070Z,100839.09
2023-03-22T06:14:17.916Z,100845.91
2023-03-22T06:17:05.707Z,100841.34
2023-03-22T06:19:33.113Z,100834.00
2023-03-22T06:22:03.352Z,100828.75
2023-03-22T06:24:33.062Z,100834.47
2023-03-22T06:27:01.164Z,100839.25
2023-03-22T06:29:29.678Z,100834.66
2023-03-22T06:31:59.858Z,100824.94
2023-03-22T06:34:27.551Z,100830.78
2023-03-22T06:36:55.583Z,100832.94
2023-03-22T06:39:32.707Z,100825.31
2023-03-22T06:42:00.232Z,100822.84
2023-03-22T06:44:28.137Z,100829.28
2023-03-22T06:47:09.013Z,100821.31
2023-03-22T06:49:53.460Z,100828.81
2023-03-22T06:52:25.420Z,100826.84
2023-03-22T06:54:53.251Z,100826.28
2023-03-22T06:57:20.558Z,100820.03
2023-03-22T06:59:48.020Z,100816.59
2023-03-22T07:02:15.550Z,100813.38
2023-03-22T07:05:01.962Z,100802.75
2023-03-22T07:07:29.401Z,100814.25
2023-03-22T07:09:57.130Z,100768.19
2023-03-22T07:12:24.977Z,100810.03
2023-03-22T07:14:52.654Z,100794.84
2023-03-22T07:17:33.926Z,100807.75
2023-03-22T07:20:01.753Z,100798.31
2023-03-22T07:22:29.528Z,100799.31
2023-03-22T07:24:59.390Z,100790.72
2023-03-22T07:27:30.176Z,100790.91
2023-03-22T07:29:57.967Z,100787.47
2023-03-22T07:32:25.497Z,100788.25
2023-03-22T07:35:04.148Z,100781.88
2023-03-22T07:37:31.465Z,100784.03
2023-03-22T07:39:58.804Z,100791.81
2023-03-22T07:42:31.352Z,100786.00
2023-03-22T07:45:20.639Z,100792.75
2023-03-22T07:48:14.400Z,100793.84
2023-03-22T07:50:55.788Z,100795.38
2023-03-22T07:53:25.053Z,100798.28
2023-03-22T07:55:52.434Z,100789.88
2023-03-22T07:58:19.634Z,100788.69
2023-03-22T08:00:49.790Z,100791.94
2023-03-22T08:03:37.746Z,100787.47
2023-03-22T08:06:14.274Z,100789.47
2023-03-22T08:08:42.104Z,100773.88
2023-03-22T08:11:10.159Z,100782.53
2023-03-22T08:13:38.344Z,100785.00
2023-03-22T08:16:08.703Z,100779.59
2023-03-22T08:18:36.234Z,100783.53
2023-03-22T08:21:05.645Z,100780.25
2023-03-22T08:23:41.860Z,100786.06
2023-03-22T08:26:49.779Z,100768.31
2023-03-22T08:29:40.055Z,100775.25
2023-03-22T08:32:07.934Z,100779.97
2023-03-22T08:34:41.770Z,100773.88
2023-03-22T08:37:09.624Z,100775.84
2023-03-22T08:39:37.869Z,100779.13
2023-03-22T08:42:20.086Z,100776.09
2023-03-22T08:44:47.676Z,100772.06
2023-03-22T08:47:15.551Z,100778.25
2023-03-22T08:49:44.484Z,100770.31
2023-03-22T08:52:19.110Z,100772.66
2023-03-22T08:55:08.906Z,100769.53
2023-03-22T08:57:58.952Z,100769.28
2023-03-22T09:00:48.252Z,100768.19
2023-03-22T09:03:31.323Z,100770.84
2023-03-22T09:05:58.826Z,100761.75
2023-03-22T09:08:29.466Z,100762.28
2023-03-22T09:11:08.155Z,100768.59
2023-03-22T09:13:36.071Z,100761.63
2023-03-22T09:16:04.922Z,100759.06
2023-03-22T09:18:33.701Z,100768.28
2023-03-22T09:21:04.720Z,100762.69
2023-03-22T09:24:01.380Z,100766.56
2023-03-22T09:26:39.534Z,100759.88
2023-03-22T09:29:07.464Z,100763.38
2023-03-22T09:31:35.022Z,100751.31
2023-03-22T09:34:14.836Z,100752.78
2023-03-22T09:36:42.558Z,100754.34
2023-03-22T09:39:10.363Z,100755.38
2023-03-22T09:41:46.497Z,100746.78
2023-03-22T09:44:26.363Z,100745.41
2023-03-22T09:46:55.266Z,100747.75
2023-03-22T09:49:24.223Z,100747.13
2023-03-22T09:51:52.755Z,100741.50
2023-03-22T09:54:22.012Z,100748.22
2023-03-22T09:56:55.922Z,100742.34
2023-03-22T09:59:34.214Z,100755.31
2023-03-22T10:02:04.917Z,100753.03
2023-03-22T10:04:41.539Z,100756.47
2023-03-22T10:07:18.848Z,100750.59
2023-03-22T10:09:54.904Z,100748.78
2023-03-22T10:12:26.897Z,100743.38
2023-03-22T10:15:04.296Z,100752.47
2023-03-22T10:17:31.891Z,100742.41
2023-03-22T10:19:59.133Z,100735.09
2023-03-22T10:22:30.301Z,100742.94
2023-03-22T10:24:58.244Z,100749.34
2023-03-22T10:27:26.441Z,100745.72
2023-03-22T10:29:56.697Z,100738.81
2023-03-22T10:32:29.576Z,100739.16
2023-03-22T10:34:57.118Z,100736.63
2023-03-22T10:37:29.445Z,100733.94
2023-03-22T10:39:58.823Z,100738.59
2023-03-22T10:42:28.094Z,100725.31
2023-03-22T10:45:01.620Z,100718.47
2023-03-22T10:47:52.052Z,100717.03
2023-03-22T10:50:30.749Z,100715.72
2023-03-22T10:53:06.057Z,100721.56
2023-03-22T10:55:39.290Z,100727.75
2023-03-22T10:58:14.077Z,100727.78
2023-03-22T11:00:49.463Z,100720.34
2023-03-22T11:03:37.384Z,100718.19
2023-03-22T11:06:09.517Z,100741.06
2023-03-22T11:08:47.622Z,100721.53
2023-03-22T11:11:16.657Z,100728.53
2023-03-22T11:13:49.504Z,100721.53
2023-03-22T11:16:17.881Z,100731.41
2023-03-22T11:18:45.261Z,100722.91
2023-03-22T11:21:13.162Z,100730.41
2023-03-22T11:23:42.447Z,100725.47
2023-03-22T11:26:11.534Z,100717.28
2023-03-22T11:28:50.034Z,100726.09
2023-03-22T11:31:18.560Z,100728.38
2023-03-22T11:33:51.780Z,100736.78
2023-03-22T11:36:19.442Z,100730.22
2023-03-22T11:38:47.436Z,100734.63
2023-03-22T11:41:20.145Z,100734.59
2023-03-22T11:43:49.538Z,100733.72
2023-03-22T11:46:19.471Z,100732.22
2023-03-22T11:48:48.223Z,100722.78
2023-03-22T11:51:19.156Z,100728.47
2023-03-22T11:53:48.272Z,100725.94
2023-03-22T11:56:17.455Z,100718.19
2023-03-22T11:58:49.987Z,100724.19
2023-03-22T12:01:24.512Z,100714.09
2023-03-22T12:03:55.740Z,100701.34
2023-03-22T12:06:25.501Z,100707.19
2023-03-22T12:09:03.462Z,100698.28
2023-03-22T12:11:36.975Z,100710.16
2023-03-22T12:14:24.914Z,100701.53
2023-03-22T12:16:58.516Z,100697.59
2023-03-22T12:19:51.944Z,100702.84
2023-03-22T12:22:29.891Z,100696.28
2023-03-22T12:24:58.128Z,100705.53
2023-03-22T12:27:29.760Z,100696.88
2023-03-22T12:29:59.847Z,100694.19
2023-03-22T12:32:30.790Z,100698.09
2023-03-22T12:35:16.086Z,100694.13
2023-03-22T12:37:46.854Z,100698.00
2023-03-22T12:40:20.931Z,100692.28
2023-03-22T12:42:59.694Z,100686.56
2023-03-22T12:45:29.366Z,100684.31
2023-03-22T12:48:06.630Z,100683.41
2023-03-22T12:50:43.681Z,100690.00
2023-03-22T12:53:16.258Z,100686.28
2023-03-22T12:55:44.718Z,100683.94
2023-03-22T12:58:14.392Z,100695.56
2023-03-22T13:00:58.289Z,100681.38
2023-03-22T13:03:29.162Z,100690.53
2023-03-22T13:06:01.556Z,100676.81
2023-03-22T13:08:48.964Z,100673.00
2023-03-22T13:11:23.506Z,100673.25
2023-03-22T13:13:50.847Z,100676.16
2023-03-22T13:16:22.618Z,100676.06
2023-03-22T13:18:50.059Z,100669.53
2023-03-22T13:21:22.384Z,100675.19
2023-03-22T13:23:54.108Z,100671.56
2023-03-22T13:26:23.380Z,100669.44
2023-03-22T13:29:02.046Z,100658.91
2023-03-22T13:31:40.873Z,100662.47
2023-03-22T13:34:21.966Z,100646.41
2023-03-22T13:36:51.267Z,100642.09
2023-03-22T13:39:18.788Z,100652.75
2023-03-22T13:41:48.902Z,100648.22
2023-03-22T13:44:29.834Z,100648.00
2023-03-22T13:47:03.530Z,100650.06
2023-03-22T13:49:33.742Z,100647.91
2023-03-22T13:52:02.149Z,100649.75
2023-03-22T13:54:35.744Z,100637.50
2023-03-22T13:57:03.840Z,100646.00
2023-03-22T13:59:33.846Z,100644.97
2023-03-22T14:02:05.198Z,100638.22
2023-03-22T14:04:37.288Z,100633.69
2023-03-22T14:07:08.214Z,100632.00
2023-03-22T14:09:46.985Z,100627.94
2023-03-22T14:12:33.126Z,100634.63
2023-03-22T14:15:02.584Z,100619.06
2023-03-22T14:17:34.316Z,100615.38
2023-03-22T14:20:04.958Z,100611.47
